Historyczne dane pomiarowe

Dodano dane terminowe – wersja testowa.

Dane z okresu 1951-2019

Wersja bazy: 1.34 [2019-03-16, lista zmian], aktualizacja planowana na 2019-04-15

Dane meteo z obszaru Polski uzyskane na podstawie danych udostępnionych przez Instytut Meteorologii i Gospodarki Wodnej – Państwowy Instytut Badawczy.

 

Wybierz Datę:    

       

TemperaturaWilgotnośćWiatrCiśnienieOpadyŚniegCzas trwania zjawisk
 Stacja t tx tn tng RH VA  wxwx mslp ppp RRR   cm mm wxwxwxwxwxwxwx
2019-03-31 0.9 5.9 -1.0- 86.0 5.6 6.1 9.8 9.7 0.0- 838.7 0.2 0.0 0.0174 5.0 5.3--- 13.2---
2019-03-30 4.8 6.2 1.8- 27.1 2.3 6.6 3.8 0.0 0.0- 842.6 0.0 0.0 0.0183 4.8 9.4-------
2019-03-29 0.1 2.4 -3.5- 77.8 4.6 6.3 5.4 2.0 0.0- 847.4 0.0 0.0 0.0189 4.7 10.5--- 9.5---
2019-03-28 -1.4 -0.2 -3.3- 99.0 5.5 7.5 15.4 22.5 9.3- 845.0 0.6 0.6 0.0191 4.7 0.0 1.8 0.7- 24.0---
2019-03-27 -4.7 -2.6 -7.6- 95.6 4.2 7.6 14.5 21.1 10.2- 841.4 0.2 0.0 0.2192 4.7 2.6- 0.1- 24.0---
2019-03-26 -6.2 -5.1 -7.6- 94.4 3.6 6.5 21.1 24.0 19.4- 834.5 1.0 0.0 1.0193 4.7 4.2- 1.0- 23.3---
2019-03-25 -5.9 -2.2 -7.2- 94.5 3.7 7.1 16.4 24.0 15.5- 829.3 7.1 5.4 1.7189 5.4 2.9- 5.4- 20.5---
2019-03-24 -0.8 4.1 -2.3- 98.5 5.7 7.8 10.3 16.3 0.0- 839.3 0.6 0.2 0.4199 5.6 0.8--- 24.0---
2019-03-23 4.9 6.5 3.6- 70.6 6.0 2.6 5.8 3.5 0.0- 845.5 0.0 0.0 0.0210 5.5 10.5--- 4.5---
2019-03-22 3.9 6.2 1.0- 84.5 6.8 3.9 6.1 4.2 0.0- 849.2 0.0 0.0 0.0220 5.5 10.0--- 4.3---
2019-03-21 0.7 3.1 -5.9- 89.8 5.8 4.6 8.0 11.2 0.0- 849.0 0.0 0.0 0.0232 5.3 9.5--- 7.8---
2019-03-20 -5.5 -2.3 -8.5- 85.3 3.5 5.1 6.9 9.0 0.0- 845.5 0.0 0.0 0.0237 4.2 6.6--- 7.4---
2019-03-19 -7.3 -5.0 -8.2- 94.4 3.4 6.6 15.4 24.0 12.2- 836.9 2.6 1.7 0.9236 4.2 3.3- 7.5- 14.7---
2019-03-18 -5.9 1.4 -7.5- 95.9 3.8 7.8 19.3 24.0 24.0- 827.7 5.0 4.2 0.8233 4.3 0.0- 11.0- 24.0---
2019-03-17 -0.1 4.2 -2.5- 79.1 4.8 6.5 23.4 24.0 24.0- 822.5 4.4 0.0 4.4232 4.3 8.0- 1.8- 8.0---
2019-03-16 -3.8 -0.6 -6.3- 96.3 4.5 7.4 30.3 24.0 24.0- 821.0 1.8 1.3 0.5231 4.3 2.5- 5.1- 19.5---
2019-03-15 -3.8 -2.4 -5.4- 96.8 4.5 8.0 19.9 24.0 24.0- 816.7 4.6 2.3 2.3229 4.3 0.0- 11.3- 24.0---
2019-03-14 -4.8 -4.0 -5.6- 96.1 4.1 8.0 16.4 24.0 23.0- 818.4 18.0 8.0 10.0219 4.5 0.2- 16.0- 24.0---
2019-03-13 -5.9 -4.7 -7.6- 95.8 3.8 7.6 16.5 24.0 22.0- 822.1 1.4 0.6 0.8219 4.5 2.6- 6.7- 20.5---
2019-03-12 -7.2 -6.2 -8.8- 95.0 3.4 6.9 14.6 21.0 14.0- 831.1 2.7 0.4 2.3217 4.6 4.6- 6.7- 21.8---
2019-03-11 -7.7 -0.8 -8.6- 94.6 3.3 7.6 23.4 24.0 24.0- 823.6 7.9 7.2 0.7215 4.6 1.1- 4.8- 24.0---
2019-03-10 -4.2 -1.0 -8.0- 96.9 4.4 6.4 24.3 24.0 19.0- 819.9 11.0 7.0 4.0209 4.6 0.0- 8.3- 24.0-- 0.1
2019-03-09 -3.5 -1.8 -5.2- 97.4 4.6 8.0 17.4 23.2 14.7- 825.1 7.3 2.6 4.7206 4.7 0.0- 6.9- 24.0---
2019-03-08 -3.4 -0.5 -3.9- 97.5 4.7 8.0 16.5 24.0 10.8- 825.8 5.2 4.0 1.2204 4.7 0.0- 2.7- 24.0---
2019-03-07 -0.6 1.9 -2.7- 91.1 5.4 7.1 12.1 21.3 0.0- 822.1 1.0 0.7 0.3205 4.7 4.0 1.3-- 13.8---
2019-03-06 -4.5 -2.6 -6.8- 97.0 4.3 6.8 14.0 20.7 3.5- 827.8 0.4 0.1 0.3205 4.7 3.7--- 22.8---
2019-03-05 -5.7 -1.8 -6.4- 96.3 3.9 8.0 23.3 24.0 24.0- 819.6 8.7 7.8 0.9200 4.8 0.1- 9.9- 24.0---
2019-03-04 -1.0 0.6 -1.9- 97.8 5.6 7.6 22.0 24.0 24.0- 818.4 1.0 0.1 0.9200 4.7 1.5- 0.8- 15.8---
2019-03-03 -1.8 -0.4 -6.4- 98.8 5.3 8.0 19.8 24.0 24.0- 826.8 3.5 1.2 2.3198 4.7 0.0- 4.0- 24.0---
2019-03-02 -6.8 -3.2 -8.3- 95.4 3.5 8.0 10.9 23.0 3.5- 829.3 1.3 0.7 0.6199 4.7 0.0--- 24.0---
2019-03-01 -2.5 -0.5 -3.5- 98.4 5.0 8.0 18.8 24.0 13.4- 826.3 6.7 5.9 0.8194 4.8 0.0- 8.0- 24.0---
2019-02-28 1.1 5.4 -0.6- 61.9 4.0 3.5 22.5 24.0 24.0- 828.3 0.4 0.0 0.0197 4.7 8.2--- 4.8---
2019-02-27 1.3 3.8 -3.8- 35.0 2.3 0.9 12.1 20.0 5.8- 842.5 0.0 0.0 0.0201 4.6 9.3-------
2019-02-26 -0.5 2.0 -1.6- 76.5 4.6 6.0 20.6 24.0 22.4- 844.6 0.0 0.0 0.0206 4.4 4.6--- 14.0---
2019-02-25 1.5 3.9 0.0- 51.4 3.4 6.3 16.8 24.0 16.7- 849.7 0.0 0.0 0.0210 3.9 3.8--- 2.2---
2019-02-24 -0.8 1.2 -5.3- 88.4 5.2 6.8 10.5 17.8 0.0- 851.0 0.0 0.0 0.0212 3.8 2.6--- 15.7---
2019-02-23 -9.4 -4.6-15.3- 43.1 1.2 4.8 6.5 0.0 0.0- 850.8 0.0 0.0 0.0212 3.8 6.1-------
2019-02-22 -8.0 -0.8-13.1- 94.0 3.4 7.1 15.4 18.2 11.2- 842.0 0.6 0.6 0.0212 3.8 0.4- 7.2- 21.5---
2019-02-21 -3.2 -2.1 -4.9- 96.4 4.7 7.1 16.9 24.0 16.5- 838.1 11.0 1.1 9.9207 3.9 0.1- 5.8- 22.5---
2019-02-20 -5.1 -2.4 -6.1- 95.0 4.0 7.4 17.4 24.0 16.9- 835.1 0.0 0.0 0.0207 3.9 0.0- 0.8- 9.7---
2019-02-19 -0.2 3.4 -2.5- 58.8 3.3 4.6 15.8 16.8 15.3- 833.5 1.0 0.7 0.3209 3.9 7.8- 1.3- 8.7---
2019-02-18 4.4 6.1 3.0- 20.9 1.7 4.4 6.9 8.8 0.0- 840.2 0.0 0.0 0.0212 3.9 9.4-------
2019-02-17 5.1 6.8 3.8- 26.1 2.3 3.9 10.0 14.0 0.0- 843.6 0.0 0.0 0.0217 3.8 9.2-------
2019-02-16 5.6 7.3 1.4- 17.4 1.6 2.4 7.6 11.3 0.0- 846.6 0.0 0.0 0.0220 3.8 9.4-------
2019-02-15 0.6 1.8 -3.1- 34.1 2.1 5.3 13.5 17.2 11.7- 848.4 0.0 0.0 0.0225 3.7 9.3-------
2019-02-14 -1.7 -0.3 -3.2- 93.0 5.1 4.6 14.3 22.1 6.3- 847.6 0.1 0.1 0.0227 3.7 4.8--- 12.3---
2019-02-13 -4.1 -1.2 -9.1- 96.6 4.5 7.9 20.1 24.0 24.0- 843.2 0.7 0.3 0.4228 3.6 0.0--- 21.2---
2019-02-12 -9.2 -7.1-10.0- 91.6 2.8 8.0 23.5 24.0 24.0- 834.3 1.3 1.0 0.3228 3.6 0.0- 5.7- 24.0---
2019-02-11 -6.0 -3.8 -7.1- 94.9 3.7 8.0 27.5 24.0 24.0- 818.5 5.3 2.2 3.1226 3.6 0.0- 7.5- 24.0---
2019-02-10 -4.3 -3.1 -5.8- 96.1 4.3 8.0 14.3 24.0 5.7- 821.0 14.3 1.1 13.2221 3.7 0.0- 6.6- 24.0---
2019-02-09 -4.9 -3.4 -6.4- 95.8 4.1 7.6 18.9 24.0 17.8- 825.8 0.8 0.5 0.3221 3.7 0.0- 2.7- 24.0---
2019-02-08 -5.2 -1.5 -6.5- 92.8 3.9 7.6 15.4 21.5 14.2- 831.6 1.1 0.4 0.7221 3.7 2.7- 0.2- 17.9---
2019-02-07 -2.4 3.6 -7.4- 39.1 1.9 5.6 16.9 20.6 16.3- 831.4 1.5 0.0 1.5221 3.6 2.4- 4.0- 5.2---
2019-02-06 -2.6 1.4 -8.9- 39.4 1.8 4.6 10.1 14.2 0.0- 840.2 0.0 0.0 0.0223 3.6 8.3--- 4.7---
2019-02-05 -6.7 -3.3-11.0- 60.6 2.2 4.9 10.4 13.5 3.2- 839.2 0.0 0.0 0.0224 3.6 5.8--- 10.7---
2019-02-04 -9.5 -6.9-10.6- 88.5 2.7 5.6 11.9 12.5 11.5- 837.2 0.0 0.0 0.0225 3.7 3.7- 5.2- 15.2---
2019-02-03 -4.9 -1.4 -8.7- 96.9 4.2 7.9 8.9 11.6 2.7- 824.3 14.4 7.6 6.8214 3.8 0.0- 21.3- 24.0---
2019-02-02 -1.4 -0.5 -5.1- 99.0 5.5 8.0 12.9 14.3 7.2- 815.3 3.5 0.2 3.3213 3.8 0.0--- 24.0---
2019-02-01 -7.3 -3.4-10.4- 93.3 3.4 7.5 15.3 24.0 11.5- 813.8 0.3 0.0 0.3215 3.8 1.4--- 14.8---
2019-01-31 -9.1 -7.6-10.9- 91.6 2.8 4.6 7.5 7.5 0.0- 816.9 0.0 0.0 0.0216 3.8 1.8--- 13.0---
182.3 ms

 

Źródłem pochodzenia danych jest Instytut Meteorologii i Gospodarki Wodnej – Państwowy Instytut Badawczy. Dane Instytutu Meteorologii i Gospodarki Wodnej – Państwowego Instytutu Badawczego zostały przetworzone.

Dane źródłowe można odnaleźć na stronie https://dane.imgw.pl